Time;durP1;ratioP1;P1;durP2;ratioP2;P2;SDS_P1;SDS_P2;PMS_P1;PMS_P2;Temp;Humidity;BMP_temperature;BMP_pressure;BME280_temperature;BME280_humidity;BME280_pressure;Samples;Min_cycle;Max_cycle;Signal;HPM_P1;HPM_P2
2024/02/01 00:00:37;;;;;;;5.57;3.20;;;4.70;95.90;;;;;;5029044;28;20088;-66
2024/02/01 00:03:03;;;;;;;5.35;2.70;;;4.60;96.20;;;;;;5024894;28;20059;-67
2024/02/01 00:05:28;;;;;;;6.15;3.92;;;4.70;96.40;;;;;;5025886;28;20052;-66
2024/02/01 00:07:55;;;;;;;4.85;2.92;;;4.70;96.60;;;;;;5027875;28;20107;-66
2024/02/01 00:10:21;;;;;;;6.00;3.38;;;4.70;96.60;;;;;;5024114;28;20075;-66
2024/02/01 00:12:46;;;;;;;8.20;3.30;;;4.70;96.90;;;;;;5022191;28;20402;-66
2024/02/01 00:15:13;;;;;;;5.65;3.78;;;4.60;97.00;;;;;;5019793;28;20128;-66
2024/02/01 00:17:39;;;;;;;8.93;3.65;;;4.70;97.20;;;;;;5030498;28;20734;-66
2024/02/01 00:20:05;;;;;;;7.90;3.58;;;4.60;97.30;;;;;;5010326;28;20040;-66
2024/02/01 00:22:31;;;;;;;5.65;3.40;;;4.60;97.60;;;;;;5024470;28;20128;-66
2024/02/01 00:24:56;;;;;;;5.60;3.60;;;4.60;97.60;;;;;;5022709;28;20055;-66
2024/02/01 00:27:22;;;;;;;5.32;3.45;;;4.60;97.70;;;;;;5029853;28;20042;-67
2024/02/01 00:29:47;;;;;;;6.13;3.65;;;4.70;97.80;;;;;;5020612;28;20024;-66
2024/02/01 00:32:13;;;;;;;8.00;4.13;;;4.70;98.00;;;;;;5026187;28;20069;-67
2024/02/01 00:34:44;;;;;;;7.38;4.10;;;4.70;98.00;;;;;;5029185;28;20390;-65
2024/02/01 00:37:10;;;;;;;7.00;3.35;;;4.70;98.00;;;;;;5030156;28;20037;-66
2024/02/01 00:39:36;;;;;;;6.20;3.65;;;4.70;98.20;;;;;;5027221;28;20099;-66
2024/02/01 00:42:01;;;;;;;7.07;4.45;;;4.70;98.30;;;;;;5026916;28;20103;-66
2024/02/01 00:44:27;;;;;;;7.60;3.85;;;4.70;98.40;;;;;;5020179;28;20083;-66
2024/02/01 00:46:52;;;;;;;6.60;4.45;;;4.70;98.50;;;;;;5023162;28;20033;-66
2024/02/01 00:49:18;;;;;;;7.47;4.88;;;4.70;98.60;;;;;;5036214;28;20037;-66
2024/02/01 00:51:43;;;;;;;7.80;4.05;;;4.70;98.70;;;;;;5034627;28;20061;-66
2024/02/01 00:54:08;;;;;;;6.25;4.00;;;4.70;98.80;;;;;;5035556;28;20029;-66
2024/02/01 00:56:34;;;;;;;7.47;4.63;;;4.70;98.90;;;;;;5032116;28;20041;-68
2024/02/01 00:58:59;;;;;;;6.90;3.97;;;4.80;98.90;;;;;;5033849;28;20026;-66
2024/02/01 01:01:25;;;;;;;8.50;4.35;;;4.70;99.00;;;;;;5029364;28;20151;-66
2024/02/01 01:03:50;;;;;;;8.30;3.90;;;4.80;99.10;;;;;;5025647;28;20048;-66
2024/02/01 01:06:16;;;;;;;8.88;4.72;;;4.70;99.10;;;;;;5027294;28;20050;-68
2024/02/01 01:08:41;;;;;;;6.78;4.55;;;4.80;99.10;;;;;;5032356;28;20183;-66
2024/02/01 01:11:07;;;;;;;7.13;4.13;;;4.80;99.10;;;;;;5030623;28;20348;-66
2024/02/01 01:13:32;;;;;;;9.50;4.93;;;4.80;99.20;;;;;;5026641;28;20068;-66
2024/02/01 01:15:58;;;;;;;6.53;3.90;;;4.80;99.20;;;;;;5035244;28;20203;-67
2024/02/01 01:18:23;;;;;;;8.70;4.47;;;4.90;99.30;;;;;;5040657;28;20033;-66
2024/02/01 01:20:49;;;;;;;9.50;4.88;;;4.90;99.30;;;;;;5022337;28;20112;-66
2024/02/01 01:23:15;;;;;;;9.90;4.57;;;4.90;99.40;;;;;;5037181;28;20384;-66
2024/02/01 01:25:40;;;;;;;8.50;4.68;;;4.90;99.40;;;;;;5029169;28;20124;-66
2024/02/01 01:28:06;;;;;;;7.80;4.30;;;5.00;99.50;;;;;;5041891;28;20394;-66
2024/02/01 01:30:31;;;;;;;8.43;4.20;;;4.90;99.50;;;;;;5027212;28;20028;-67
2024/02/01 01:32:57;;;;;;;8.38;4.63;;;5.00;99.50;;;;;;5028055;28;20116;-66
2024/02/01 01:35:22;;;;;;;8.25;4.57;;;5.00;99.50;;;;;;5031275;28;20033;-66
2024/02/01 01:37:48;;;;;;;8.10;4.82;;;4.90;99.60;;;;;;5026086;28;20072;-66
2024/02/01 01:40:13;;;;;;;8.23;4.43;;;5.00;99.60;;;;;;5032439;28;20187;-66
2024/02/01 01:42:42;;;;;;;7.50;4.45;;;5.00;99.80;;;;;;5030896;28;20361;-67
2024/02/01 01:45:08;;;;;;;6.93;4.07;;;5.00;99.90;;;;;;5006884;28;20462;-66
2024/02/01 01:47:34;;;;;;;7.60;4.50;;;5.00;99.90;;;;;;5022302;28;20042;-66
2024/02/01 01:50:00;;;;;;;10.15;5.88;;;5.00;99.90;;;;;;5028129;28;20036;-67
2024/02/01 01:52:27;;;;;;;7.75;4.68;;;5.00;99.90;;;;;;5028106;28;20116;-66
2024/02/01 01:54:53;;;;;;;8.40;4.90;;;5.00;99.90;;;;;;5020659;28;20507;-66
2024/02/01 01:57:19;;;;;;;8.32;5.10;;;5.10;99.90;;;;;;5032683;28;20128;-66
2024/02/01 01:59:44;;;;;;;8.70;4.40;;;5.10;99.90;;;;;;5030495;28;20047;-66
2024/02/01 02:02:11;;;;;;;8.95;5.05;;;5.10;99.90;;;;;;5030690;28;20128;-67
2024/02/01 02:04:37;;;;;;;8.45;4.35;;;5.10;99.90;;;;;;5028906;28;20395;-66
2024/02/01 02:07:02;;;;;;;8.32;4.85;;;5.10;99.90;;;;;;5029690;28;20105;-67
2024/02/01 02:09:28;;;;;;;8.68;5.05;;;5.10;99.90;;;;;;5025501;28;20041;-66
2024/02/01 02:11:53;;;;;;;10.63;4.57;;;5.10;99.90;;;;;;5027169;28;20095;-67
2024/02/01 02:14:19;;;;;;;7.68;3.97;;;5.20;99.90;;;;;;5031478;28;20109;-66
2024/02/01 02:16:44;;;;;;;8.30;3.95;;;5.30;99.90;;;;;;5026350;28;20065;-66
2024/02/01 02:19:10;;;;;;;10.68;4.65;;;5.30;99.90;;;;;;5025648;28;20036;-66
2024/02/01 02:21:47;;;;;;;7.43;4.30;;;5.30;99.90;;;;;;5026065;28;20041;-67
2024/02/01 02:24:14;;;;;;;7.93;4.88;;;5.30;99.90;;;;;;5024597;28;20387;-66
2024/02/01 02:26:40;;;;;;;8.20;4.65;;;5.40;99.90;;;;;;5026818;28;20055;-67
2024/02/01 02:29:05;;;;;;;7.55;4.43;;;5.40;99.90;;;;;;5000909;28;20030;-67
2024/02/01 02:31:31;;;;;;;9.18;4.35;;;5.50;99.90;;;;;;5026570;28;20475;-67
2024/02/01 02:33:56;;;;;;;7.50;4.03;;;5.50;99.90;;;;;;5033913;28;20195;-66
2024/02/01 02:36:22;;;;;;;8.07;3.67;;;5.50;99.90;;;;;;5019642;28;20111;-67
2024/02/01 02:38:47;;;;;;;8.27;4.35;;;5.50;99.90;;;;;;5032172;28;20048;-67
2024/02/01 02:41:13;;;;;;;8.18;4.70;;;5.60;99.90;;;;;;5029638;28;20021;-67
2024/02/01 02:43:39;;;;;;;6.55;3.38;;;5.60;99.90;;;;;;5024265;28;20073;-67
2024/02/01 02:46:04;;;;;;;7.88;4.40;;;5.70;99.90;;;;;;5030335;28;20256;-68
2024/02/01 02:48:32;;;;;;;6.50;3.30;;;5.70;99.90;;;;;;5027564;28;20138;-68
2024/02/01 02:50:58;;;;;;;8.90;4.65;;;5.70;99.90;;;;;;5025748;28;20070;-67
2024/02/01 02:53:23;;;;;;;6.75;3.63;;;5.60;99.90;;;;;;5028680;28;20149;-67
2024/02/01 02:55:49;;;;;;;8.23;4.07;;;5.60;99.90;;;;;;5029313;28;20036;-67
2024/02/01 02:58:14;;;;;;;8.05;4.45;;;5.70;99.90;;;;;;5028041;28;20065;-67
2024/02/01 03:00:40;;;;;;;6.38;3.40;;;5.70;99.90;;;;;;5026222;28;20351;-67
2024/02/01 03:03:05;;;;;;;7.85;4.50;;;5.80;99.90;;;;;;5027562;28;20059;-67
2024/02/01 03:05:30;;;;;;;6.63;3.78;;;5.80;99.90;;;;;;5027550;28;20032;-67
2024/02/01 03:07:56;;;;;;;7.85;4.38;;;5.80;99.90;;;;;;5032054;28;20455;-67
2024/02/01 03:10:22;;;;;;;7.97;4.68;;;5.80;99.90;;;;;;5025997;28;20033;-67
2024/02/01 03:12:47;;;;;;;8.23;4.45;;;5.80;99.90;;;;;;5029411;28;20109;-67
2024/02/01 03:15:13;;;;;;;7.18;3.88;;;5.90;99.90;;;;;;5024707;28;20060;-66
2024/02/01 03:17:40;;;;;;;7.03;4.10;;;5.90;99.90;;;;;;5024016;28;20025;-66
2024/02/01 03:20:17;;;;;;;7.63;4.15;;;5.80;99.90;;;;;;5024344;28;20108;-67
2024/02/01 03:22:44;;;;;;;7.32;4.07;;;5.90;99.90;;;;;;5021335;28;20080;-67
2024/02/01 03:25:10;;;;;;;7.70;4.53;;;5.90;99.90;;;;;;5022778;28;20103;-67
2024/02/01 03:27:36;;;;;;;6.15;3.30;;;5.90;99.90;;;;;;5029416;28;20132;-67
2024/02/01 03:30:01;;;;;;;10.30;4.75;;;6.00;99.90;;;;;;5028176;28;20111;-67
2024/02/01 03:32:29;;;;;;;8.48;4.50;;;6.00;99.90;;;;;;5027367;28;20188;-67
2024/02/01 03:34:55;;;;;;;9.40;3.22;;;6.00;99.90;;;;;;5022859;28;20037;-66
2024/02/01 03:37:21;;;;;;;8.05;3.70;;;6.10;99.90;;;;;;5022167;28;20444;-66
2024/02/01 03:39:47;;;;;;;6.03;3.35;;;6.00;99.90;;;;;;5026298;28;20045;-66
2024/02/01 03:42:12;;;;;;;7.70;3.92;;;6.10;99.90;;;;;;5023244;28;20075;-67
2024/02/01 03:44:39;;;;;;;5.88;3.42;;;6.10;99.90;;;;;;5017757;28;22532;-67
2024/02/01 03:47:11;;;;;;;5.45;3.17;;;6.10;99.90;;;;;;5029697;28;20385;-67
2024/02/01 03:49:39;;;;;;;5.35;2.92;;;6.10;99.90;;;;;;5030692;28;20474;-67
2024/02/01 03:52:08;;;;;;;5.00;2.95;;;6.10;99.90;;;;;;5020696;28;20118;-68
2024/02/01 03:54:35;;;;;;;6.80;3.60;;;6.10;99.90;;;;;;5026905;28;20341;-67
2024/02/01 03:57:01;;;;;;;4.75;2.63;;;6.00;99.90;;;;;;5026147;28;20391;-67
2024/02/01 03:59:27;;;;;;;6.88;3.28;;;6.00;99.90;;;;;;5022011;28;20194;-67
2024/02/01 04:01:53;;;;;;;4.72;2.20;;;6.00;99.90;;;;;;5012094;28;20110;-68
2024/02/01 04:04:18;;;;;;;5.45;2.75;;;5.90;99.90;;;;;;5015507;28;20117;-67
2024/02/01 04:06:46;;;;;;;4.45;2.50;;;6.00;99.90;;;;;;5023967;28;20017;-67
2024/02/01 04:09:11;;;;;;;4.78;2.20;;;6.00;99.90;;;;;;5025518;28;20028;-67
2024/02/01 04:11:36;;;;;;;4.03;2.28;;;5.90;99.90;;;;;;5024586;28;20041;-67
2024/02/01 04:14:02;;;;;;;2.90;2.15;;;5.90;99.90;;;;;;5007244;28;20452;-67
2024/02/01 04:16:28;;;;;;;4.88;2.47;;;5.90;99.90;;;;;;5005604;28;20094;-67
2024/02/01 04:18:55;;;;;;;4.75;2.17;;;5.90;99.90;;;;;;5023954;28;20032;-67
2024/02/01 04:21:21;;;;;;;4.40;2.22;;;5.90;99.90;;;;;;5027293;28;20033;-67
2024/02/01 04:23:47;;;;;;;4.65;2.38;;;5.80;99.90;;;;;;5020543;28;20041;-67
2024/02/01 04:26:15;;;;;;;4.93;2.53;;;5.80;99.90;;;;;;5024440;28;20042;-67
2024/02/01 04:28:44;;;;;;;3.22;1.90;;;5.80;99.90;;;;;;5025234;28;20037;-68
2024/02/01 04:31:12;;;;;;;4.80;2.53;;;5.70;99.90;;;;;;5024906;28;20411;-67
2024/02/01 04:33:40;;;;;;;2.28;1.40;;;5.60;99.90;;;;;;5018741;28;20322;-67
2024/02/01 04:36:07;;;;;;;3.45;1.65;;;5.60;99.90;;;;;;5026506;28;20444;-67
2024/02/01 04:38:33;;;;;;;4.85;1.63;;;5.50;99.90;;;;;;5026130;28;20018;-68
2024/02/01 04:40:58;;;;;;;5.15;1.88;;;5.40;99.90;;;;;;5025788;28;20048;-67
2024/02/01 04:43:24;;;;;;;2.97;1.73;;;5.40;99.90;;;;;;5030317;28;20317;-67
2024/02/01 04:45:49;;;;;;;1.33;1.20;;;5.40;99.90;;;;;;5025188;28;20424;-67
2024/02/01 04:48:15;;;;;;;2.88;1.20;;;5.30;99.90;;;;;;5036263;28;20044;-68
2024/02/01 04:50:40;;;;;;;6.13;1.67;;;5.30;99.90;;;;;;5031223;28;20150;-67
2024/02/01 04:53:07;;;;;;;1.80;1.33;;;5.30;99.90;;;;;;5028559;28;20380;-68
2024/02/01 04:55:33;;;;;;;2.85;1.48;;;5.20;99.90;;;;;;5025256;28;20033;-67
2024/02/01 04:57:59;;;;;;;3.75;1.45;;;5.20;99.80;;;;;;5028900;28;20099;-67
2024/02/01 05:00:26;;;;;;;3.05;1.42;;;5.10;99.90;;;;;;5027326;28;20116;-67
2024/02/01 05:02:52;;;;;;;4.90;1.92;;;5.20;99.90;;;;;;5020750;28;20462;-67
2024/02/01 05:05:18;;;;;;;5.53;2.60;;;5.10;99.90;;;;;;5026454;28;20025;-67
2024/02/01 05:07:44;;;;;;;2.75;1.30;;;5.10;99.80;;;;;;5028846;28;20056;-67
2024/02/01 05:10:12;;;;;;;4.63;1.40;;;5.10;99.90;;;;;;5029789;28;20140;-67
2024/02/01 05:12:38;;;;;;;1.65;1.25;;;5.00;99.90;;;;;;5025924;28;20424;-67
2024/02/01 05:15:09;;;;;;;1.85;1.08;;;5.00;99.90;;;;;;5027977;28;20057;-67
2024/02/01 05:17:37;;;;;;;1.65;1.25;;;5.00;99.90;;;;;;5025428;28;20481;-67
2024/02/01 05:20:08;;;;;;;5.45;1.80;;;5.00;99.90;;;;;;5024212;28;20033;-66
2024/02/01 05:22:37;;;;;;;;;;;4.90;99.90;;;;;;5025522;28;20022;-67
2024/02/01 05:25:15;;;;;;;4.45;1.58;;;5.00;99.90;;;;;;5025036;28;19977;-67
2024/02/01 05:27:52;;;;;;;7.20;1.80;;;5.00;99.90;;;;;;5025196;28;20167;-67
2024/02/01 05:30:22;;;;;;;2.17;0.90;;;4.90;99.90;;;;;;5016785;28;20037;-67
2024/02/01 05:32:52;;;;;;;5.78;1.55;;;4.80;99.90;;;;;;5024656;28;20042;-65
2024/02/01 05:35:24;;;;;;;4.30;1.50;;;4.90;99.90;;;;;;5020207;28;20523;-65
2024/02/01 05:37:50;;;;;;;6.13;2.00;;;4.80;99.90;;;;;;5027135;28;20053;-68
2024/02/01 05:40:16;;;;;;;2.22;1.23;;;4.80;99.90;;;;;;5026052;28;20037;-65
2024/02/01 05:42:46;;;;;;;6.20;1.35;;;4.70;99.90;;;;;;5026741;28;20033;-65
2024/02/01 05:45:15;;;;;;;5.57;1.50;;;4.60;99.90;;;;;;5028650;28;20029;-66
2024/02/01 05:47:41;;;;;;;8.05;1.63;;;4.60;99.90;;;;;;5024991;28;20034;-65
2024/02/01 05:50:11;;;;;;;5.18;1.35;;;4.60;99.90;;;;;;5026203;28;20052;-65
2024/02/01 05:52:37;;;;;;;2.58;1.30;;;4.60;99.90;;;;;;5025362;28;20120;-65
2024/02/01 05:55:06;;;;;;;2.40;1.17;;;4.50;99.90;;;;;;5026067;28;20467;-65
2024/02/01 05:57:32;;;;;;;1.65;0.98;;;4.60;99.90;;;;;;5025116;28;20128;-66
2024/02/01 05:59:59;;;;;;;2.08;1.40;;;4.50;99.90;;;;;;5027823;28;20073;-65
2024/02/01 06:02:25;;;;;;;3.63;1.13;;;4.50;99.90;;;;;;5031523;28;20154;-65
2024/02/01 06:04:51;;;;;;;3.05;1.05;;;4.40;99.90;;;;;;5037973;28;20109;-65
2024/02/01 06:07:17;;;;;;;5.03;1.10;;;4.40;99.90;;;;;;5039134;28;20033;-65
2024/02/01 06:09:42;;;;;;;3.30;0.95;;;4.40;99.90;;;;;;5026609;28;20073;-65
2024/02/01 06:12:08;;;;;;;1.48;1.02;;;4.40;99.90;;;;;;5022724;28;20477;-65
2024/02/01 06:14:35;;;;;;;3.58;0.88;;;4.40;99.90;;;;;;5027176;28;20021;-66
2024/02/01 06:17:00;;;;;;;3.35;1.25;;;4.50;99.90;;;;;;5025767;28;20439;-65
2024/02/01 06:19:26;;;;;;;3.88;1.60;;;4.50;99.90;;;;;;5033956;28;20055;-68
2024/02/01 06:21:51;;;;;;;5.55;0.85;;;4.50;99.90;;;;;;5029386;28;20099;-66
2024/02/01 06:24:17;;;;;;;5.38;1.50;;;4.50;99.80;;;;;;5027435;28;20030;-66
2024/02/01 06:26:42;;;;;;;5.28;1.17;;;4.50;99.70;;;;;;5024757;28;20112;-66
2024/02/01 06:29:08;;;;;;;5.25;0.70;;;4.50;99.60;;;;;;5019760;28;20117;-66
2024/02/01 06:31:40;;;;;;;5.18;1.65;;;4.50;99.70;;;;;;5022575;28;20485;-66
2024/02/01 06:34:11;;;;;;;1.85;1.05;;;4.40;99.60;;;;;;5021024;28;20348;-66
2024/02/01 06:36:39;;;;;;;2.25;1.52;;;4.40;99.70;;;;;;5023037;28;20029;-67
2024/02/01 06:39:16;;;;;;;4.93;1.10;;;4.40;99.70;;;;;;5032848;28;20037;-67
2024/02/01 06:41:51;;;;;;;3.50;1.13;;;4.30;99.70;;;;;;5034180;28;20034;-66
2024/02/01 06:44:27;;;;;;;6.70;1.27;;;4.30;99.60;;;;;;5028095;28;20040;-68
2024/02/01 06:49:39;;;;;;;1.30;0.88;;;4.20;99.70;;;;;;5018865;28;20064;-66
2024/02/01 06:55:14;;;;;;;5.18;1.40;;;4.10;99.60;;;;;;5019780;28;20083;-65
2024/02/01 07:08:34;;;;;;;7.53;1.55;;;4.10;99.60;;;;;;5026483;28;20038;-66
2024/02/01 07:11:14;;;;;;;4.40;1.25;;;4.10;99.60;;;;;;5023901;28;20372;-67
2024/02/01 07:16:24;;;;;;;2.42;0.90;;;4.00;99.40;;;;;;5026056;28;20095;-67
2024/02/01 07:22:00;;;;;;;4.35;1.08;;;4.00;99.30;;;;;;5022627;28;20367;-67
2024/02/01 07:24:39;;;;;;;2.90;1.02;;;4.00;99.30;;;;;;5024918;28;20547;-66
2024/02/01 07:57:50;;;;;;;6.13;0.93;;;3.90;98.60;;;;;;5025604;28;20084;-66
2024/02/01 08:00:19;;;;;;;;;;;3.90;98.50;;;;;;5042918;28;20063;-66
2024/02/01 08:02:49;;;;;;;1.67;0.77;;;3.90;98.60;;;;;;5029339;28;19913;-66
2024/02/01 08:08:03;;;;;;;2.13;0.80;;;3.90;98.60;;;;;;5025903;28;20120;-66
2024/02/01 08:10:29;;;;;;;4.18;1.13;;;4.00;98.60;;;;;;5031298;28;20022;-68
2024/02/01 08:12:55;;;;;;;4.03;1.20;;;4.00;98.60;;;;;;5034168;28;20040;-66
2024/02/01 08:15:21;;;;;;;1.92;0.93;;;3.90;98.60;;;;;;5027427;28;20091;-66
2024/02/01 08:17:48;;;;;;;3.28;0.98;;;3.90;98.60;;;;;;5023567;28;20025;-66
2024/02/01 08:20:14;;;;;;;3.97;0.98;;;4.00;98.60;;;;;;5026700;28;20108;-66
2024/02/01 08:22:41;;;;;;;3.35;1.02;;;4.00;98.60;;;;;;5025821;28;20029;-66
2024/02/01 08:25:07;;;;;;;1.30;0.40;;;4.00;98.50;;;;;;5022510;28;20062;-65
2024/02/01 08:27:34;;;;;;;5.82;1.20;;;4.10;98.50;;;;;;5031564;28;20111;-65
2024/02/01 08:30:12;;;;;;;2.00;0.93;;;4.00;98.40;;;;;;5030610;28;20134;-65
2024/02/01 08:32:41;;;;;;;4.10;1.67;;;4.00;98.50;;;;;;5022215;28;20079;-66
2024/02/01 08:35:10;;;;;;;6.57;1.15;;;4.10;98.50;;;;;;5031540;28;20026;-65
2024/02/01 08:37:36;;;;;;;5.03;0.65;;;4.10;98.40;;;;;;5027832;28;20029;-66
2024/02/01 08:40:02;;;;;;;3.65;0.98;;;4.10;98.40;;;;;;5029575;28;20376;-66
2024/02/01 08:42:29;;;;;;;3.15;0.85;;;4.20;98.20;;;;;;5025976;28;20078;-66
2024/02/01 08:44:55;;;;;;;4.68;1.63;;;4.20;98.10;;;;;;5026077;28;20026;-66
2024/02/01 08:47:23;;;;;;;8.85;1.38;;;4.30;98.00;;;;;;5031080;28;20036;-67
2024/02/01 08:49:49;;;;;;;4.25;1.35;;;4.30;97.90;;;;;;5029137;28;20113;-66
2024/02/01 08:52:15;;;;;;;4.18;0.80;;;4.40;97.70;;;;;;5020172;28;20036;-67
2024/02/01 08:54:41;;;;;;;3.83;0.95;;;4.50;97.70;;;;;;5023368;28;20068;-66
2024/02/01 08:57:13;;;;;;;5.00;1.00;;;4.60;97.30;;;;;;5025817;28;20033;-66
2024/02/01 08:59:39;;;;;;;1.00;0.65;;;4.60;97.20;;;;;;5033012;28;20032;-65
2024/02/01 09:02:14;;;;;;;2.20;0.98;;;4.60;97.20;;;;;;5024497;28;20116;-66
2024/02/01 09:04:41;;;;;;;2.08;1.05;;;4.60;96.90;;;;;;5025616;28;20064;-66
2024/02/01 09:07:06;;;;;;;8.88;1.77;;;4.70;96.80;;;;;;5028830;28;20420;-66
2024/02/01 09:09:33;;;;;;;4.00;0.95;;;4.70;96.50;;;;;;5027122;28;20107;-66
2024/02/01 09:11:59;;;;;;;2.47;1.17;;;4.80;96.20;;;;;;5026295;28;20034;-66
2024/02/01 09:14:24;;;;;;;6.70;1.50;;;4.90;96.20;;;;;;5035238;28;20104;-65
2024/02/01 09:16:52;;;;;;;12.55;1.33;;;4.90;95.80;;;;;;5024369;28;20154;-66
2024/02/01 09:19:17;;;;;;;5.03;1.67;;;5.00;95.60;;;;;;5024247;28;20232;-68
2024/02/01 09:21:42;;;;;;;8.05;1.52;;;5.00;95.70;;;;;;5032907;28;20059;-67
2024/02/01 09:24:08;;;;;;;8.88;1.33;;;5.10;95.60;;;;;;5025698;28;20078;-65
2024/02/01 09:26:33;;;;;;;3.70;1.27;;;5.20;95.00;;;;;;5027642;28;20037;-66
2024/02/01 09:28:59;;;;;;;4.72;1.42;;;5.20;95.10;;;;;;5031303;28;20029;-66
2024/02/01 09:31:25;;;;;;;5.07;1.95;;;5.30;95.20;;;;;;5035870;28;20043;-65
2024/02/01 09:33:50;;;;;;;6.63;1.05;;;5.30;95.00;;;;;;5024007;28;20045;-65
2024/02/01 09:36:16;;;;;;;8.77;1.85;;;5.50;95.00;;;;;;5038233;28;20040;-65
2024/02/01 09:38:43;;;;;;;3.55;1.63;;;5.60;94.60;;;;;;5032738;28;20182;-65
2024/02/01 09:41:20;;;;;;;1.90;1.08;;;5.50;94.70;;;;;;5034127;28;20025;-66
2024/02/01 09:43:48;;;;;;;4.78;1.08;;;5.60;94.50;;;;;;5037739;28;20030;-66
2024/02/01 09:46:16;;;;;;;5.90;1.33;;;5.60;94.60;;;;;;5032341;28;20025;-65
2024/02/01 09:48:43;;;;;;;3.72;1.35;;;5.60;93.90;;;;;;5023995;28;20032;-66
2024/02/01 09:51:17;;;;;;;2.88;1.23;;;5.60;93.70;;;;;;5027357;28;20025;-65
2024/02/01 09:53:45;;;;;;;2.90;1.17;;;5.60;93.60;;;;;;5034150;28;20115;-65
2024/02/01 09:56:12;;;;;;;4.80;1.23;;;5.60;94.00;;;;;;5029785;28;20053;-67
2024/02/01 09:58:39;;;;;;;2.20;1.02;;;5.70;93.90;;;;;;5043061;28;20113;-65
2024/02/01 10:01:05;;;;;;;2.55;1.20;;;5.80;94.30;;;;;;5038372;28;20033;-67
2024/02/01 10:03:30;;;;;;;2.75;0.95;;;5.80;93.60;;;;;;5034448;28;20033;-66
2024/02/01 10:05:56;;;;;;;4.75;1.70;;;5.80;93.50;;;;;;5035778;28;20057;-66
2024/02/01 10:08:25;;;;;;;5.05;1.05;;;5.90;93.40;;;;;;5017655;28;20159;-66
2024/02/01 10:10:51;;;;;;;6.10;1.33;;;6.00;93.20;;;;;;5031788;28;20363;-66
2024/02/01 10:13:18;;;;;;;4.00;1.63;;;6.00;93.10;;;;;;5031379;28;20033;-66
2024/02/01 10:15:47;;;;;;;4.07;1.38;;;6.00;92.10;;;;;;5016395;28;20049;-66
2024/02/01 10:18:21;;;;;;;3.47;1.67;;;6.00;91.70;;;;;;5025874;28;20037;-65
2024/02/01 10:20:51;;;;;;;3.60;1.58;;;6.00;92.00;;;;;;5037542;28;20052;-65
2024/02/01 10:23:19;;;;;;;5.23;1.17;;;6.10;91.50;;;;;;5026882;28;20037;-66
2024/02/01 10:25:47;;;;;;;8.00;1.65;;;6.10;91.60;;;;;;5023154;28;20161;-65
2024/02/01 10:28:20;;;;;;;4.63;1.48;;;6.10;91.40;;;;;;5030236;28;20097;-66
2024/02/01 10:30:47;;;;;;;8.40;1.20;;;6.40;91.40;;;;;;5026262;28;20112;-66
2024/02/01 10:33:14;;;;;;;3.67;1.35;;;6.30;90.80;;;;;;5022091;28;20090;-67
2024/02/01 10:35:42;;;;;;;2.53;1.20;;;6.30;90.90;;;;;;5029558;28;20029;-66
2024/02/01 10:38:13;;;;;;;3.20;0.93;;;6.40;91.10;;;;;;5029601;28;20026;-66
2024/02/01 10:41:01;;;;;;;7.57;1.80;;;6.30;90.30;;;;;;5038291;28;20145;-66
2024/02/01 10:43:31;;;;;;;6.85;1.70;;;6.50;90.40;;;;;;5034953;28;20478;-66
2024/02/01 10:46:05;;;;;;;4.78;1.58;;;6.40;89.30;;;;;;5033291;28;20029;-65
2024/02/01 10:48:52;;;;;;;8.98;1.75;;;6.50;89.90;;;;;;5029073;28;20082;-65
2024/02/01 10:51:18;;;;;;;6.32;1.95;;;6.70;89.90;;;;;;5035455;28;20028;-69
2024/02/01 10:53:46;;;;;;;7.90;1.13;;;6.60;89.30;;;;;;5032459;28;20038;-66
2024/02/01 10:56:15;;;;;;;6.28;1.77;;;6.50;89.80;;;;;;5036438;28;20416;-66
2024/02/01 10:58:45;;;;;;;4.60;1.15;;;6.60;89.50;;;;;;5021202;28;20044;-66
2024/02/01 11:01:14;;;;;;;6.45;2.22;;;6.60;89.30;;;;;;5036760;28;20036;-65
2024/02/01 11:03:49;;;;;;;4.28;1.00;;;6.70;89.70;;;;;;5030780;28;20068;-66
2024/02/01 11:06:16;;;;;;;3.63;1.20;;;6.60;89.50;;;;;;5033699;28;20101;-66
2024/02/01 11:08:43;;;;;;;7.40;1.50;;;6.60;88.70;;;;;;5031230;28;20033;-67
2024/02/01 11:11:16;;;;;;;3.40;1.02;;;6.80;89.60;;;;;;5034015;28;20439;-66
2024/02/01 11:13:45;;;;;;;4.38;1.20;;;6.80;89.20;;;;;;5034436;28;20037;-66
2024/02/01 11:16:11;;;;;;;4.10;1.25;;;7.00;88.20;;;;;;5030378;28;20119;-66
2024/02/01 11:18:37;;;;;;;4.47;1.92;;;7.00;88.30;;;;;;5025531;28;20037;-66
2024/02/01 11:21:06;;;;;;;8.13;1.80;;;6.90;87.70;;;;;;5028645;28;20090;-66
2024/02/01 11:23:38;;;;;;;3.20;0.90;;;7.00;87.20;;;;;;5024896;28;20308;-66
2024/02/01 11:26:15;;;;;;;2.95;0.98;;;7.10;87.40;;;;;;5028690;28;20025;-65
2024/02/01 11:28:40;;;;;;;4.40;1.55;;;7.10;86.90;;;;;;5026980;28;20111;-68
2024/02/01 11:31:06;;;;;;;4.53;1.33;;;7.20;86.40;;;;;;5029646;28;20117;-67
2024/02/01 11:33:33;;;;;;;3.38;1.20;;;7.20;86.50;;;;;;5024131;28;20119;-68
2024/02/01 11:35:59;;;;;;;8.10;2.63;;;7.30;86.00;;;;;;5025579;28;20053;-66
2024/02/01 11:38:27;;;;;;;5.78;1.75;;;7.40;85.30;;;;;;5028088;28;20296;-67
2024/02/01 11:40:53;;;;;;;2.25;0.70;;;7.50;85.40;;;;;;5030438;28;20163;-67
2024/02/01 11:43:19;;;;;;;6.13;1.75;;;7.60;85.40;;;;;;5031103;28;20471;-67
2024/02/01 11:45:53;;;;;;;4.03;1.70;;;7.60;84.40;;;;;;5026000;28;20026;-67
2024/02/01 11:48:22;;;;;;;5.38;1.33;;;7.70;84.90;;;;;;5020113;28;20502;-67
2024/02/01 11:50:53;;;;;;;7.95;1.48;;;7.60;84.80;;;;;;5025889;28;20067;-66
2024/02/01 11:53:20;;;;;;;2.72;1.10;;;7.50;84.20;;;;;;5009047;28;20033;-66
2024/02/01 11:55:45;;;;;;;8.10;1.50;;;7.20;84.60;;;;;;5021013;28;20042;-67
2024/02/01 11:58:14;;;;;;;6.25;1.15;;;7.40;85.10;;;;;;5027062;28;20044;-67
2024/02/01 12:00:39;;;;;;;4.60;0.93;;;7.30;84.70;;;;;;5021842;28;20034;-67
2024/02/01 12:03:08;;;;;;;8.93;1.75;;;7.40;85.10;;;;;;5024266;28;20064;-67
2024/02/01 12:05:33;;;;;;;5.80;1.50;;;7.40;83.60;;;;;;5026335;28;20036;-65
2024/02/01 12:07:59;;;;;;;3.47;0.80;;;7.40;82.90;;;;;;5026124;28;20704;-67
2024/02/01 12:10:25;;;;;;;6.20;1.13;;;7.80;83.90;;;;;;5027228;28;20033;-66
2024/02/01 12:12:51;;;;;;;3.75;0.68;;;7.50;82.60;;;;;;5031502;28;20086;-65
2024/02/01 12:15:16;;;;;;;3.78;0.63;;;7.60;83.10;;;;;;5029636;28;20068;-66
2024/02/01 12:17:43;;;;;;;8.65;1.40;;;7.60;83.50;;;;;;5028311;28;20131;-66
2024/02/01 12:20:16;;;;;;;8.57;1.90;;;7.60;83.10;;;;;;5022564;28;20167;-66
2024/02/01 12:22:47;;;;;;;4.63;1.50;;;7.60;83.90;;;;;;5030763;28;20149;-66
2024/02/01 12:25:15;;;;;;;5.55;1.40;;;7.70;83.50;;;;;;5022634;28;20483;-65
2024/02/01 12:27:45;;;;;;;5.55;0.82;;;7.70;84.60;;;;;;5027150;28;20125;-66
2024/02/01 12:30:13;;;;;;;4.47;1.50;;;7.60;83.20;;;;;;5026626;28;20025;-66
2024/02/01 12:32:45;;;;;;;4.57;1.45;;;7.50;83.70;;;;;;5019371;28;20038;-65
2024/02/01 12:35:12;;;;;;;6.78;1.50;;;7.50;83.70;;;;;;5023175;28;20034;-67
2024/02/01 12:37:41;;;;;;;4.80;1.13;;;7.50;83.20;;;;;;5026369;28;20041;-65
2024/02/01 12:40:11;;;;;;;2.22;1.20;;;8.10;82.60;;;;;;5026930;28;20025;-66
2024/02/01 12:42:38;;;;;;;3.90;1.30;;;8.40;81.00;;;;;;5026836;28;20082;-66
2024/02/01 12:45:04;;;;;;;2.33;0.80;;;8.50;82.00;;;;;;5019718;28;20037;-66
2024/02/01 12:47:33;;;;;;;7.00;1.67;;;8.40;81.50;;;;;;5020100;28;20037;-65
2024/02/01 12:49:59;;;;;;;3.85;1.13;;;8.20;81.10;;;;;;5027236;28;20327;-66
2024/02/01 12:52:25;;;;;;;7.18;1.92;;;8.20;81.30;;;;;;5029198;28;20114;-66
2024/02/01 12:54:50;;;;;;;8.02;1.27;;;8.10;81.80;;;;;;5028495;28;20125;-66
2024/02/01 12:57:19;;;;;;;3.78;0.90;;;8.10;81.30;;;;;;5024651;28;20117;-67
2024/02/01 12:59:45;;;;;;;3.30;1.00;;;8.30;78.50;;;;;;5026825;28;20048;-66
2024/02/01 13:02:10;;;;;;;3.70;0.68;;;8.50;78.90;;;;;;5018034;28;20113;-66
2024/02/01 13:04:36;;;;;;;3.63;1.00;;;8.70;79.10;;;;;;5007867;28;20045;-67
2024/02/01 13:07:01;;;;;;;7.00;1.60;;;8.70;78.60;;;;;;5037531;28;20032;-65
2024/02/01 13:09:31;;;;;;;5.45;1.52;;;8.40;79.80;;;;;;5031764;28;20040;-67
2024/02/01 13:11:58;;;;;;;1.80;0.70;;;8.10;79.70;;;;;;5032781;28;20446;-66
2024/02/01 13:14:28;;;;;;;5.30;1.60;;;7.90;80.30;;;;;;5025933;28;20025;-67
2024/02/01 13:16:57;;;;;;;5.28;1.17;;;7.80;81.00;;;;;;5022338;28;20502;-65
2024/02/01 13:19:23;;;;;;;3.97;0.98;;;7.80;78.70;;;;;;5037552;28;20044;-66
2024/02/01 13:21:53;;;;;;;1.42;0.93;;;7.80;79.80;;;;;;5026709;28;20026;-66
2024/02/01 13:24:18;;;;;;;4.63;1.45;;;7.70;79.60;;;;;;5022671;28;20105;-66
2024/02/01 13:26:44;;;;;;;2.72;0.98;;;7.60;80.50;;;;;;5032672;28;20101;-66
2024/02/01 13:29:13;;;;;;;2.58;1.05;;;7.60;81.20;;;;;;5033702;28;20454;-65
2024/02/01 13:31:41;;;;;;;3.22;0.90;;;7.60;81.20;;;;;;5026684;28;20458;-65
2024/02/01 13:34:06;;;;;;;3.03;0.65;;;7.40;80.20;;;;;;5025283;28;20041;-65
2024/02/01 13:36:32;;;;;;;3.00;0.95;;;7.30;79.70;;;;;;5034076;28;20052;-66
2024/02/01 13:38:57;;;;;;;5.65;1.05;;;7.40;79.90;;;;;;5021293;28;20029;-65
2024/02/01 13:41:22;;;;;;;5.35;0.88;;;7.30;79.30;;;;;;5030426;28;20061;-66
2024/02/01 13:43:48;;;;;;;1.60;0.60;;;7.20;79.90;;;;;;5037677;28;20143;-65
2024/02/01 13:46:13;;;;;;;4.40;0.88;;;7.20;80.10;;;;;;5037943;28;20375;-65
2024/02/01 13:48:39;;;;;;;3.53;0.80;;;7.30;80.10;;;;;;5020417;28;20152;-66
2024/02/01 13:51:08;;;;;;;3.50;1.20;;;7.10;80.50;;;;;;5036147;28;20116;-65
2024/02/01 13:53:34;;;;;;;2.25;0.77;;;7.40;79.20;;;;;;5040735;28;20037;-65